createdAt,value
2022-11-22T00:00:21.530Z,7.93
2022-11-22T00:02:48.861Z,6.47
2022-11-22T00:05:15.296Z,9.38
2022-11-22T00:07:41.877Z,7.47
2022-11-22T00:10:11.113Z,8.52
2022-11-22T00:12:37.690Z,7.45
2022-11-22T00:15:05.137Z,10.02
2022-11-22T00:17:32.841Z,7.43
2022-11-22T00:19:59.449Z,9.02
2022-11-22T00:22:26.053Z,8.52
2022-11-22T00:24:53.552Z,7.47
2022-11-22T00:27:20.572Z,10.32
2022-11-22T00:29:46.981Z,7.05
2022-11-22T00:32:14.403Z,7.65
2022-11-22T00:34:40.848Z,10.48
2022-11-22T00:37:07.599Z,9.73
2022-11-22T00:39:34.400Z,12.25
2022-11-22T00:42:00.822Z,9.43
2022-11-22T00:44:27.192Z,8.50
2022-11-22T00:46:53.966Z,9.50
2022-11-22T00:49:20.358Z,10.77
2022-11-22T00:51:46.759Z,10.20
2022-11-22T00:54:13.640Z,9.88
2022-11-22T00:56:39.955Z,7.57
2022-11-22T00:59:06.369Z,14.38
2022-11-22T01:01:33.166Z,7.25
2022-11-22T01:04:00.074Z,7.50
2022-11-22T01:06:26.389Z,8.73
2022-11-22T01:08:53.390Z,11.27
2022-11-22T01:11:20.324Z,10.38
2022-11-22T01:13:47.177Z,11.02
2022-11-22T01:16:14.253Z,9.25
2022-11-22T01:18:41.292Z,11.07
2022-11-22T01:21:08.269Z,11.23
2022-11-22T01:23:35.085Z,9.82
2022-11-22T01:26:01.949Z,8.93
2022-11-22T01:28:28.718Z,9.80
2022-11-22T01:30:55.216Z,11.32
2022-11-22T01:33:21.929Z,11.70
2022-11-22T01:35:48.660Z,8.57
2022-11-22T01:38:14.975Z,8.10
2022-11-22T01:40:41.393Z,11.48
2022-11-22T01:43:18.475Z,11.02
2022-11-22T01:45:47.686Z,11.18
2022-11-22T01:48:23.360Z,5.55
2022-11-22T01:50:56.015Z,7.97
2022-11-22T01:53:33.607Z,9.15
2022-11-22T01:56:02.999Z,8.30
2022-11-22T01:58:33.082Z,10.02
2022-11-22T02:01:01.006Z,11.00
2022-11-22T02:03:29.404Z,9.55
2022-11-22T02:05:56.445Z,12.27
2022-11-22T02:08:31.653Z,10.85
2022-11-22T02:11:01.368Z,10.15
2022-11-22T02:13:27.930Z,4.32
2022-11-22T02:15:54.886Z,8.32
2022-11-22T02:18:21.919Z,9.32
2022-11-22T02:20:48.272Z,8.20
2022-11-22T02:23:30.630Z,9.82
2022-11-22T02:25:59.330Z,10.63
2022-11-22T02:28:28.650Z,9.30
2022-11-22T02:30:55.543Z,5.13
2022-11-22T02:33:21.978Z,7.50
2022-11-22T02:35:48.660Z,7.82
2022-11-22T02:38:22.866Z,4.30
2022-11-22T02:40:59.830Z,5.35
2022-11-22T02:43:40.336Z,9.93
2022-11-22T02:46:12.520Z,5.00
2022-11-22T02:48:42.543Z,7.65
2022-11-22T02:51:09.272Z,7.28
2022-11-22T02:53:35.988Z,8.48
2022-11-22T02:56:02.362Z,11.38
2022-11-22T02:58:29.508Z,7.63
2022-11-22T03:00:55.955Z,6.53
2022-11-22T03:03:22.342Z,10.13
2022-11-22T03:05:49.068Z,9.55
2022-11-22T03:08:15.438Z,10.13
2022-11-22T03:10:41.762Z,12.55
2022-11-22T03:13:08.106Z,13.30
2022-11-22T03:15:34.408Z,10.25
2022-11-22T03:18:02.241Z,9.20
2022-11-22T03:20:29.491Z,12.55
2022-11-22T03:22:55.940Z,13.18
2022-11-22T03:25:22.614Z,10.27
2022-11-22T03:27:49.638Z,10.80
2022-11-22T03:30:16.440Z,11.20
2022-11-22T03:32:42.782Z,10.63
2022-11-22T03:35:09.651Z,6.90
2022-11-22T03:37:36.121Z,8.70
2022-11-22T03:40:02.486Z,10.05
2022-11-22T03:42:29.139Z,12.43
2022-11-22T03:44:55.458Z,11.13
2022-11-22T03:47:21.835Z,11.95
2022-11-22T03:49:48.695Z,9.40
2022-11-22T03:52:15.022Z,10.35
2022-11-22T03:54:41.351Z,7.90
2022-11-22T03:57:08.120Z,12.48
2022-11-22T03:59:34.478Z,12.07
2022-11-22T04:02:00.911Z,11.30
2022-11-22T04:04:28.057Z,15.27
2022-11-22T04:06:54.441Z,11.07
2022-11-22T04:09:20.863Z,8.27
2022-11-22T04:11:47.721Z,12.98
2022-11-22T04:14:32.965Z,9.18
2022-11-22T04:19:26.012Z,9.55
2022-11-22T04:21:52.445Z,12.10
2022-11-22T04:24:37.538Z,10.73
2022-11-22T04:27:03.995Z,12.20
2022-11-22T04:29:30.668Z,9.77
2022-11-22T04:32:15.840Z,13.88
2022-11-22T04:34:42.684Z,11.13
2022-11-22T04:37:09.094Z,12.18
2022-11-22T04:39:35.498Z,12.50
2022-11-22T04:42:20.908Z,8.98
2022-11-22T04:44:47.331Z,11.52
2022-11-22T04:47:35.705Z,10.00
2022-11-22T04:50:03.612Z,9.50
2022-11-22T04:52:49.201Z,10.07
2022-11-22T04:55:15.665Z,10.77
2022-11-22T04:57:42.449Z,9.85
2022-11-22T05:00:09.894Z,8.88
2022-11-22T05:02:36.674Z,9.35
2022-11-22T05:05:03.097Z,7.88
2022-11-22T05:07:30.021Z,9.10
2022-11-22T05:09:56.386Z,8.85
2022-11-22T05:12:22.743Z,7.75
2022-11-22T05:14:49.566Z,8.38
2022-11-22T05:17:15.967Z,7.95
2022-11-22T05:19:47.891Z,9.98
2022-11-22T05:22:15.735Z,9.57
2022-11-22T05:24:42.102Z,9.07
2022-11-22T05:27:08.979Z,8.05
2022-11-22T05:29:35.496Z,8.85
2022-11-22T05:32:02.423Z,8.38
2022-11-22T05:34:28.822Z,12.40
2022-11-22T05:36:55.658Z,10.38
2022-11-22T05:39:22.035Z,7.95
2022-11-22T05:41:56.264Z,7.85
2022-11-22T05:44:23.916Z,9.52
2022-11-22T05:46:51.828Z,10.95
2022-11-22T05:49:18.728Z,14.73
2022-11-22T05:51:45.141Z,14.27
2022-11-22T05:54:11.632Z,16.58
2022-11-22T05:56:38.822Z,13.38
2022-11-22T05:59:05.648Z,11.32
2022-11-22T06:01:32.508Z,9.60
2022-11-22T06:03:58.865Z,9.85
2022-11-22T06:06:25.799Z,12.07
2022-11-22T06:08:52.730Z,10.55
2022-11-22T06:11:22.196Z,9.57
2022-11-22T06:13:50.986Z,9.88
2022-11-22T06:16:18.225Z,8.52
2022-11-22T06:18:44.872Z,8.75
2022-11-22T06:21:17.434Z,10.98
2022-11-22T06:23:44.169Z,9.43
2022-11-22T06:26:15.804Z,9.23
2022-11-22T06:28:43.038Z,7.97
2022-11-22T06:31:12.316Z,9.32
2022-11-22T06:33:39.709Z,9.45
2022-11-22T06:36:11.864Z,10.07
2022-11-22T06:38:39.337Z,10.43
2022-11-22T06:41:08.441Z,12.13
2022-11-22T06:43:36.794Z,10.43
2022-11-22T06:46:04.741Z,13.05
2022-11-22T06:48:33.710Z,12.40
2022-11-22T06:51:18.316Z,12.88
2022-11-22T06:53:48.184Z,11.63
2022-11-22T06:56:18.225Z,13.38
2022-11-22T06:58:45.193Z,10.63
2022-11-22T07:01:14.775Z,11.68
2022-11-22T07:03:42.678Z,11.43
2022-11-22T07:06:10.897Z,14.32
2022-11-22T07:08:37.951Z,16.63
2022-11-22T07:11:08.070Z,14.48
2022-11-22T07:13:34.866Z,13.98
2022-11-22T07:16:02.618Z,13.43
2022-11-22T07:18:29.822Z,13.10
2022-11-22T07:21:10.945Z,11.48
2022-11-22T07:23:40.605Z,11.88
2022-11-22T07:26:06.933Z,11.48
2022-11-22T07:28:33.351Z,13.40
2022-11-22T07:31:02.055Z,16.13
2022-11-22T07:33:28.912Z,16.80
2022-11-22T07:35:55.406Z,17.00
2022-11-22T07:38:22.102Z,13.25
2022-11-22T07:40:48.558Z,13.93
2022-11-22T07:43:15.185Z,17.40
2022-11-22T07:45:41.816Z,15.13
2022-11-22T07:48:08.476Z,23.73
2022-11-22T07:50:34.842Z,18.88
2022-11-22T07:53:01.316Z,12.27
2022-11-22T07:55:28.094Z,14.88
2022-11-22T07:57:54.859Z,15.55
2022-11-22T08:00:21.305Z,17.83
2022-11-22T08:02:47.632Z,16.63
2022-11-22T08:05:14.409Z,20.02
2022-11-22T08:07:52.449Z,12.82
2022-11-22T08:10:19.683Z,16.65
2022-11-22T08:12:46.626Z,13.90
2022-11-22T08:15:15.008Z,17.15
2022-11-22T08:17:42.135Z,18.23
2022-11-22T08:20:09.224Z,21.77
2022-11-22T08:22:40.666Z,20.92
2022-11-22T08:25:12.713Z,24.80
2022-11-22T08:27:41.587Z,26.58
2022-11-22T08:30:09.729Z,26.92
2022-11-22T08:32:36.303Z,25.38
2022-11-22T08:35:02.954Z,27.73
2022-11-22T08:37:29.673Z,22.23
2022-11-22T08:39:56.255Z,27.05
2022-11-22T08:42:23.390Z,22.88
2022-11-22T08:44:50.546Z,25.38
2022-11-22T08:47:17.245Z,21.75
2022-11-22T08:49:43.579Z,21.08
2022-11-22T08:52:09.918Z,17.92
2022-11-22T08:54:38.125Z,18.83
2022-11-22T08:57:05.065Z,14.82
2022-11-22T08:59:31.672Z,16.05
2022-11-22T09:01:58.643Z,19.45
2022-11-22T09:04:25.020Z,11.65
2022-11-22T09:09:38.439Z,11.73
2022-11-22T09:12:05.387Z,10.63
2022-11-22T09:14:31.719Z,11.73
2022-11-22T09:16:58.390Z,10.02
2022-11-22T09:19:24.819Z,9.20
2022-11-22T09:21:51.158Z,11.95
2022-11-22T09:24:17.602Z,9.98
2022-11-22T09:26:43.982Z,7.50
2022-11-22T09:29:10.837Z,12.85
2022-11-22T09:31:37.529Z,11.85
2022-11-22T09:34:03.921Z,8.88
2022-11-22T09:36:31.502Z,9.70
2022-11-22T09:38:57.861Z,8.07
2022-11-22T09:41:46.269Z,10.63
2022-11-22T09:44:27.833Z,12.40
2022-11-22T09:47:09.725Z,13.02
2022-11-22T09:49:38.978Z,9.88
2022-11-22T09:52:11.136Z,11.48
2022-11-22T09:54:44.355Z,12.18
2022-11-22T09:57:19.146Z,9.15
2022-11-22T09:59:51.640Z,8.27
2022-11-22T10:02:25.979Z,9.77
2022-11-22T10:04:57.934Z,10.80
2022-11-22T10:07:40.474Z,9.65
2022-11-22T10:10:15.460Z,8.35
2022-11-22T10:15:44.214Z,4.72
2022-11-22T10:18:34.651Z,6.00
2022-11-22T10:21:01.118Z,10.70
2022-11-22T10:23:27.753Z,6.82
2022-11-22T10:26:06.247Z,10.65
2022-11-22T10:28:37.055Z,8.13
2022-11-22T10:31:09.726Z,5.78
2022-11-22T10:33:52.209Z,9.80
2022-11-22T10:36:43.059Z,6.57
2022-11-22T10:39:39.983Z,7.60
2022-11-22T10:42:09.930Z,9.68
2022-11-22T10:44:59.481Z,5.82
2022-11-22T10:47:34.921Z,6.15
2022-11-22T10:50:19.898Z,11.05
2022-11-22T10:53:07.369Z,7.82
2022-11-22T10:55:47.577Z,8.63
2022-11-22T10:58:33.259Z,6.10
2022-11-22T11:01:22.812Z,8.70
2022-11-22T11:03:54.840Z,7.80
2022-11-22T11:07:11.032Z,8.85
2022-11-22T11:12:42.989Z,6.28
2022-11-22T11:15:23.254Z,5.80
2022-11-22T11:17:55.738Z,3.63
2022-11-22T11:20:48.610Z,7.07
2022-11-22T11:23:16.063Z,3.78
2022-11-22T11:25:47.648Z,3.10
2022-11-22T11:28:27.045Z,4.85
2022-11-22T11:31:07.814Z,10.32
2022-11-22T11:33:39.511Z,6.88
2022-11-22T11:36:07.988Z,4.50
2022-11-22T11:38:42.393Z,8.43
2022-11-22T11:41:28.463Z,7.68
2022-11-22T11:44:04.210Z,4.18
2022-11-22T11:46:36.742Z,4.53
2022-11-22T11:49:14.430Z,6.43
2022-11-22T11:51:46.614Z,5.97
2022-11-22T11:54:19.985Z,5.43
2022-11-22T11:56:55.629Z,3.53
2022-11-22T11:59:25.373Z,5.07
2022-11-22T12:02:13.715Z,9.23
2022-11-22T12:05:00.620Z,6.75
2022-11-22T12:07:33.966Z,8.57
2022-11-22T12:10:01.355Z,3.58
2022-11-22T12:12:42.446Z,10.23
2022-11-22T12:15:26.069Z,3.05
2022-11-22T12:18:04.673Z,2.67
2022-11-22T12:21:13.755Z,4.57
2022-11-22T12:23:51.153Z,3.78
2022-11-22T12:26:18.447Z,6.82
2022-11-22T12:28:44.986Z,5.25
2022-11-22T12:31:23.963Z,6.10
2022-11-22T12:33:54.733Z,4.47
2022-11-22T12:36:31.213Z,9.60
2022-11-22T12:39:01.709Z,2.58
2022-11-22T12:41:30.071Z,3.15
2022-11-22T12:44:06.893Z,7.45
2022-11-22T12:46:44.761Z,13.90
2022-11-22T12:49:35.308Z,10.30
2022-11-22T12:52:24.309Z,8.07
2022-11-22T12:55:05.213Z,6.97
2022-11-22T12:57:43.573Z,9.10
2022-11-22T13:00:18.750Z,22.50
2022-11-22T13:03:02.014Z,7.78
2022-11-22T13:05:34.119Z,3.88
2022-11-22T13:08:14.391Z,4.90
2022-11-22T13:10:56.371Z,6.90
2022-11-22T13:13:27.802Z,4.28
2022-11-22T13:15:57.401Z,3.65
2022-11-22T13:18:31.326Z,4.90
2022-11-22T13:21:35.166Z,4.17
2022-11-22T13:24:17.073Z,3.83
2022-11-22T13:27:05.250Z,6.63
2022-11-22T13:29:34.929Z,2.45
2022-11-22T13:32:13.243Z,11.05
2022-11-22T13:34:42.361Z,1.13
2022-11-22T13:37:15.314Z,5.50
2022-11-22T13:39:48.826Z,1.38
2022-11-22T13:42:19.701Z,4.10
2022-11-22T13:44:55.346Z,5.10
2022-11-22T13:47:35.444Z,12.80
2022-11-22T13:50:01.803Z,21.63
2022-11-22T13:52:30.910Z,5.43
2022-11-22T13:55:01.677Z,6.10
2022-11-22T13:57:41.535Z,20.65
2022-11-22T14:00:17.429Z,6.68
2022-11-22T14:02:49.309Z,6.25
2022-11-22T14:05:23.133Z,2.15
2022-11-22T14:07:51.648Z,3.70
2022-11-22T14:10:33.061Z,9.40
2022-11-22T14:12:59.577Z,4.28
2022-11-22T14:15:54.804Z,3.33
2022-11-22T14:18:33.997Z,13.18
2022-11-22T14:21:25.955Z,4.60
2022-11-22T14:24:10.600Z,1.70
2022-11-22T14:26:58.999Z,1.35
2022-11-22T14:29:43.780Z,3.60
2022-11-22T14:32:20.817Z,3.88
2022-11-22T14:35:05.261Z,2.75
2022-11-22T14:37:32.176Z,2.57
2022-11-22T14:40:02.321Z,4.68
2022-11-22T14:42:38.197Z,3.38
2022-11-22T14:45:10.414Z,3.20
2022-11-22T14:47:44.418Z,2.67
2022-11-22T14:50:30.338Z,3.03
2022-11-22T14:52:59.881Z,4.90
2022-11-22T14:55:31.486Z,7.22
2022-11-22T14:58:04.519Z,7.28
2022-11-22T15:01:00.562Z,5.15
2022-11-22T15:03:41.631Z,4.28
2022-11-22T15:09:09.902Z,10.05
2022-11-22T15:09:48.818Z,4.50
2022-11-22T15:13:03.364Z,8.23
2022-11-22T15:59:41.437Z,5.20
2022-11-22T16:02:18.033Z,4.00
2022-11-22T16:06:07.071Z,7.13
2022-11-22T16:07:48.867Z,4.75
2022-11-22T16:10:25.961Z,3.08
2022-11-22T16:12:53.551Z,4.30
2022-11-22T16:15:36.123Z,6.40
2022-11-22T16:18:10.550Z,3.35
2022-11-22T16:20:39.098Z,6.50
2022-11-22T16:23:13.842Z,3.92
2022-11-22T16:25:45.694Z,7.05
2022-11-22T16:28:26.783Z,5.25
2022-11-22T16:30:55.593Z,5.25
2022-11-22T16:33:23.018Z,8.30
2022-11-22T16:35:58.010Z,8.55
2022-11-22T16:40:53.452Z,7.75
2022-11-22T16:43:22.642Z,5.28
2022-11-22T16:45:50.264Z,7.88
2022-11-22T16:48:31.678Z,6.32
2022-11-22T16:51:11.880Z,5.80
2022-11-22T16:53:44.674Z,7.05
2022-11-22T16:56:22.994Z,8.57
2022-11-22T16:58:50.940Z,5.88
2022-11-22T17:01:20.968Z,7.70
2022-11-22T17:03:49.808Z,3.85
2022-11-22T17:06:18.937Z,8.13
2022-11-22T17:08:47.066Z,11.40
2022-11-22T17:11:15.778Z,10.18
2022-11-22T17:13:42.735Z,6.88
2022-11-22T17:16:10.454Z,7.68
2022-11-22T17:18:37.993Z,9.38
2022-11-22T17:21:21.328Z,8.75
2022-11-22T17:23:49.378Z,10.25
2022-11-22T17:26:15.851Z,7.55
2022-11-22T17:28:42.590Z,5.45
2022-11-22T17:31:12.455Z,8.93
2022-11-22T17:33:38.765Z,7.57
2022-11-22T17:36:06.696Z,7.40
2022-11-22T17:38:33.002Z,5.70
2022-11-22T17:41:00.147Z,8.10
2022-11-22T17:43:26.894Z,5.07
2022-11-22T17:45:53.268Z,5.95
2022-11-22T17:48:19.641Z,4.65
2022-11-22T17:50:46.331Z,6.00
2022-11-22T17:53:12.641Z,5.95
2022-11-22T17:56:02.808Z,4.15
2022-11-22T17:58:25.605Z,6.55
2022-11-22T18:00:51.923Z,4.55
2022-11-22T18:03:18.259Z,4.80
2022-11-22T18:05:44.771Z,5.63
2022-11-22T18:08:11.625Z,8.02
2022-11-22T18:10:38.291Z,7.43
2022-11-22T18:13:20.756Z,7.78
2022-11-22T18:15:52.373Z,7.28
2022-11-22T18:18:48.575Z,6.78
2022-11-22T18:21:14.066Z,9.38
2022-11-22T18:23:43.774Z,11.55
2022-11-22T18:29:35.183Z,17.38
2022-11-22T18:31:52.086Z,25.25
2022-11-22T18:34:19.618Z,26.70
2022-11-22T18:37:03.956Z,30.40
2022-11-22T18:39:36.344Z,15.90
2022-11-22T18:42:05.765Z,10.07
2022-11-22T18:44:32.749Z,11.63
2022-11-22T18:46:59.488Z,10.40
2022-11-22T18:49:25.843Z,6.78
2022-11-22T18:51:52.264Z,9.95
2022-11-22T18:54:20.079Z,8.57
2022-11-22T18:56:46.405Z,5.20
2022-11-22T18:59:13.184Z,6.63
2022-11-22T19:01:41.852Z,4.80
2022-11-22T19:04:11.677Z,7.80
2022-11-22T19:06:38.007Z,5.90
2022-11-22T19:09:04.804Z,10.18
2022-11-22T19:11:34.225Z,6.30
2022-11-22T19:14:00.975Z,5.40
2022-11-22T19:16:30.789Z,5.22
2022-11-22T19:18:58.323Z,4.45
2022-11-22T19:21:27.186Z,6.10
2022-11-22T19:23:54.367Z,6.38
2022-11-22T19:26:22.667Z,6.35
2022-11-22T19:28:50.913Z,5.60
2022-11-22T19:31:19.502Z,4.68
2022-11-22T19:33:46.595Z,12.27
2022-11-22T19:36:15.793Z,6.68
2022-11-22T19:38:42.575Z,5.32
2022-11-22T19:41:18.263Z,5.70
2022-11-22T19:43:45.110Z,5.97
2022-11-22T19:46:12.113Z,6.53
2022-11-22T19:48:43.713Z,5.47
2022-11-22T19:51:14.667Z,6.95
2022-11-22T19:53:44.969Z,6.00
2022-11-22T19:56:18.917Z,6.97
2022-11-22T19:58:56.519Z,5.93
2022-11-22T20:01:25.949Z,6.95
2022-11-22T20:03:54.441Z,6.22
2022-11-22T20:06:21.302Z,5.65
2022-11-22T20:08:47.610Z,7.18
2022-11-22T20:11:15.961Z,8.32
2022-11-22T20:13:45.782Z,8.18
2022-11-22T20:16:15.544Z,7.47
2022-11-22T20:18:42.324Z,8.18
2022-11-22T20:21:10.942Z,9.32
2022-11-22T20:23:38.268Z,6.80
2022-11-22T20:26:07.117Z,7.68
2022-11-22T20:28:33.765Z,8.10
2022-11-22T20:31:17.881Z,8.25
2022-11-22T20:33:50.007Z,9.70
2022-11-22T20:36:18.751Z,8.13
2022-11-22T20:38:46.533Z,8.50
2022-11-22T20:41:14.581Z,8.75
2022-11-22T20:43:41.410Z,10.18
2022-11-22T20:46:10.137Z,9.32
2022-11-22T20:48:38.834Z,8.85
2022-11-22T20:51:07.664Z,8.73
2022-11-22T20:53:34.429Z,6.20
2022-11-22T20:56:01.802Z,7.82
2022-11-22T20:58:28.773Z,6.60
2022-11-22T21:00:56.832Z,10.07
2022-11-22T21:03:24.904Z,9.15
2022-11-22T21:05:53.789Z,9.98
2022-11-22T21:08:21.558Z,10.05
2022-11-22T21:10:48.322Z,8.40
2022-11-22T21:13:14.900Z,10.00
2022-11-22T21:15:42.050Z,13.48
2022-11-22T21:18:24.608Z,9.32
2022-11-22T21:20:51.680Z,8.75
2022-11-22T21:23:18.021Z,12.65
2022-11-22T21:25:44.350Z,9.27
2022-11-22T21:28:10.998Z,7.50
2022-11-22T21:30:37.301Z,8.70
2022-11-22T21:33:03.693Z,9.57
2022-11-22T21:35:30.531Z,11.45
2022-11-22T21:37:56.865Z,10.55
2022-11-22T21:40:23.156Z,11.57
2022-11-22T21:42:49.488Z,9.90
2022-11-22T21:45:15.825Z,12.65
2022-11-22T21:47:42.569Z,8.45
2022-11-22T21:50:11.791Z,13.38
2022-11-22T21:52:38.346Z,9.60
2022-11-22T21:55:05.640Z,9.77
2022-11-22T21:57:31.966Z,10.60
2022-11-22T21:59:58.278Z,11.27
2022-11-22T22:02:24.630Z,9.77
2022-11-22T22:04:50.987Z,9.73
2022-11-22T22:07:36.600Z,8.93
2022-11-22T22:10:05.556Z,8.63
2022-11-22T22:12:31.946Z,8.10
2022-11-22T22:14:58.261Z,8.40
2022-11-22T22:17:24.949Z,6.05
2022-11-22T22:19:52.686Z,7.80
2022-11-22T22:22:19.017Z,8.32
2022-11-22T22:24:45.316Z,9.55
2022-11-22T22:27:11.686Z,8.20
2022-11-22T22:29:38.359Z,7.63
2022-11-22T22:32:10.252Z,7.68
2022-11-22T22:34:36.980Z,10.27
2022-11-22T22:37:03.856Z,8.25
2022-11-22T22:39:30.521Z,9.70
2022-11-22T22:41:57.190Z,8.98
2022-11-22T22:44:24.013Z,10.63
2022-11-22T22:46:50.310Z,8.25
2022-11-22T22:49:16.655Z,9.30
2022-11-22T22:51:43.398Z,9.15
2022-11-22T22:54:10.216Z,6.85
2022-11-22T22:56:36.607Z,9.05
2022-11-22T22:59:05.513Z,8.02
2022-11-22T23:01:31.909Z,7.95
2022-11-22T23:04:00.238Z,8.55
2022-11-22T23:06:37.630Z,10.43
2022-11-22T23:09:07.473Z,5.43
2022-11-22T23:11:53.377Z,9.95
2022-11-22T23:14:23.796Z,9.65
2022-11-22T23:16:54.500Z,11.02
2022-11-22T23:19:24.417Z,7.60
2022-11-22T23:21:50.802Z,9.88
2022-11-22T23:24:17.335Z,10.73
2022-11-22T23:26:44.170Z,7.88
2022-11-22T23:29:10.645Z,7.43
2022-11-22T23:31:36.957Z,8.13
2022-11-22T23:34:03.910Z,5.25
2022-11-22T23:36:30.365Z,9.05
2022-11-22T23:38:56.702Z,8.60
2022-11-22T23:41:24.880Z,6.85
2022-11-22T23:43:53.723Z,9.00
2022-11-22T23:46:20.603Z,8.23
2022-11-22T23:48:52.523Z,8.40
2022-11-22T23:51:19.553Z,8.60
2022-11-22T23:53:46.259Z,8.02
2022-11-22T23:56:19.125Z,11.43
2022-11-22T23:58:48.492Z,7.10
